createdAt,value
2023-02-14T00:03:15.889Z,13.10
2023-02-14T00:08:22.012Z,13.96
2023-02-14T00:13:28.195Z,12.90
2023-02-14T00:18:34.319Z,13.18
2023-02-14T00:23:40.591Z,12.50
2023-02-14T00:28:46.730Z,12.97
2023-02-14T00:33:52.966Z,12.73
2023-02-14T00:38:59.082Z,13.64
2023-02-14T00:44:05.252Z,13.66
2023-02-14T00:49:11.318Z,14.37
2023-02-14T00:54:17.556Z,13.75
2023-02-14T00:59:23.622Z,13.86
2023-02-14T01:04:30.104Z,13.27
2023-02-14T01:09:36.157Z,14.29
2023-02-14T01:14:42.410Z,13.42
2023-02-14T01:19:48.547Z,12.75
2023-02-14T01:24:54.997Z,12.96
2023-02-14T01:30:01.121Z,12.56
2023-02-14T01:35:07.530Z,12.74
2023-02-14T01:40:13.626Z,12.52
2023-02-14T01:45:19.935Z,12.52
2023-02-14T01:50:26.053Z,12.54
2023-02-14T01:55:32.245Z,12.49
2023-02-14T02:00:38.315Z,12.28
2023-02-14T02:05:44.475Z,11.02
2023-02-14T02:10:50.538Z,11.33
2023-02-14T02:15:56.892Z,10.70
2023-02-14T02:21:02.959Z,10.25
2023-02-14T02:26:09.112Z,10.18
2023-02-14T02:31:15.283Z,10.40
2023-02-14T02:36:21.387Z,10.47
2023-02-14T02:41:27.475Z,10.65
2023-02-14T02:46:33.728Z,10.40
2023-02-14T02:51:39.795Z,11.05
2023-02-14T02:56:46.745Z,10.77
2023-02-14T03:01:52.846Z,11.59
2023-02-14T03:06:59.062Z,11.30
2023-02-14T03:12:05.130Z,11.43
2023-02-14T03:17:11.310Z,11.99
2023-02-14T03:22:17.418Z,11.93
2023-02-14T03:27:23.741Z,12.62
2023-02-14T03:32:29.825Z,13.10
2023-02-14T03:37:36.231Z,13.06
2023-02-14T03:42:42.307Z,12.37
2023-02-14T03:47:48.568Z,12.75
2023-02-14T03:52:54.646Z,12.69
2023-02-14T03:58:00.900Z,13.10
2023-02-14T04:03:07.138Z,13.00
2023-02-14T04:08:13.185Z,12.97
2023-02-14T04:13:19.265Z,13.38
2023-02-14T04:18:26.182Z,13.59
2023-02-14T04:23:32.368Z,12.89
2023-02-14T04:28:38.529Z,13.91
2023-02-14T04:33:44.622Z,13.19
2023-02-14T04:38:50.838Z,12.91
2023-02-14T04:43:56.933Z,13.09
2023-02-14T04:49:03.142Z,12.97
2023-02-14T04:54:09.219Z,12.89
2023-02-14T04:59:15.475Z,12.34
2023-02-14T05:04:21.607Z,12.08
2023-02-14T05:09:28.346Z,12.09
2023-02-14T05:14:34.415Z,11.45
2023-02-14T05:19:41.275Z,11.73
2023-02-14T05:24:47.370Z,11.41
2023-02-14T05:29:53.629Z,11.70
2023-02-14T05:35:01.134Z,11.02
2023-02-14T05:40:05.585Z,11.26
2023-02-14T05:45:11.695Z,11.16
2023-02-14T05:50:18.009Z,11.35
2023-02-14T05:55:24.072Z,10.97
2023-02-14T06:00:30.266Z,10.94
2023-02-14T06:05:36.473Z,10.63
2023-02-14T06:10:42.657Z,11.52
2023-02-14T06:15:48.751Z,10.89
2023-02-14T06:20:54.952Z,10.91
2023-02-14T06:26:01.044Z,10.72
2023-02-14T06:31:08.000Z,12.33
2023-02-14T06:36:13.925Z,11.72
2023-02-14T06:41:20.086Z,12.25
2023-02-14T06:46:26.235Z,12.51
2023-02-14T06:51:32.713Z,12.56
2023-02-14T06:56:38.796Z,12.65
2023-02-14T07:01:45.455Z,13.11
2023-02-14T07:06:51.466Z,12.67
2023-02-14T07:11:57.640Z,13.71
2023-02-14T07:17:03.715Z,13.91
2023-02-14T07:22:10.321Z,13.23
2023-02-14T07:27:16.401Z,13.75
2023-02-14T07:32:23.164Z,13.61
2023-02-14T07:37:29.005Z,13.69
2023-02-14T07:42:35.253Z,14.46
2023-02-14T07:47:41.438Z,14.70
2023-02-14T07:52:47.685Z,14.77
2023-02-14T07:57:53.796Z,15.34
2023-02-14T08:03:00.495Z,15.81
2023-02-14T08:08:06.601Z,16.09
2023-02-14T08:13:12.837Z,16.91
2023-02-14T08:18:19.277Z,16.65
2023-02-14T08:23:25.551Z,16.07
2023-02-14T08:28:31.650Z,16.72
2023-02-14T08:33:37.816Z,16.73
2023-02-14T08:38:43.965Z,16.65
2023-02-14T08:43:50.159Z,17.17
2023-02-14T08:48:56.216Z,17.06
2023-02-14T08:54:02.473Z,16.64
2023-02-14T08:59:08.619Z,16.65
2023-02-14T09:04:14.991Z,16.20
2023-02-14T09:09:20.927Z,16.30
2023-02-14T09:14:27.232Z,16.00
2023-02-14T09:19:33.372Z,15.86
2023-02-14T09:24:39.536Z,15.99
2023-02-14T09:29:45.686Z,16.24
2023-02-14T09:34:51.955Z,15.96
2023-02-14T09:39:58.118Z,16.68
2023-02-14T09:45:04.337Z,15.76
2023-02-14T09:50:10.528Z,15.98
2023-02-14T09:55:16.728Z,15.75
2023-02-14T10:00:22.915Z,16.02
2023-02-14T10:05:29.030Z,16.12
2023-02-14T10:10:35.097Z,15.91
2023-02-14T10:15:41.636Z,15.00
2023-02-14T10:20:47.810Z,15.09
2023-02-14T10:25:54.748Z,14.39
2023-02-14T10:31:01.460Z,14.01
2023-02-14T10:36:06.807Z,13.06
2023-02-14T10:41:12.916Z,12.30
2023-02-14T10:46:19.438Z,11.85
2023-02-14T10:51:25.544Z,11.99
2023-02-14T10:56:31.711Z,10.51
2023-02-14T11:01:37.895Z,9.89
2023-02-14T11:06:44.040Z,9.24
2023-02-14T11:11:50.159Z,9.31
2023-02-14T11:16:56.367Z,10.11
2023-02-14T11:22:02.480Z,8.91
2023-02-14T11:27:09.352Z,8.97
2023-02-14T11:32:15.422Z,8.79
2023-02-14T11:37:21.646Z,9.08
2023-02-14T11:42:27.802Z,8.55
2023-02-14T11:47:33.968Z,9.76
2023-02-14T11:52:40.039Z,9.50
2023-02-14T11:57:46.288Z,8.65
2023-02-14T12:02:52.531Z,9.11
2023-02-14T12:07:59.499Z,8.56
2023-02-14T12:13:05.586Z,9.13
2023-02-14T12:18:11.771Z,9.06
2023-02-14T12:23:17.854Z,9.53
2023-02-14T12:28:23.990Z,9.45
2023-02-14T12:33:30.049Z,9.35
2023-02-14T12:38:36.265Z,9.93
2023-02-14T12:43:42.357Z,9.74
2023-02-14T12:48:48.555Z,10.50
2023-02-14T12:53:54.658Z,10.70
2023-02-14T12:59:01.159Z,10.38
2023-02-14T13:04:07.248Z,10.56
2023-02-14T13:09:54.331Z,11.97
2023-02-14T13:15:00.437Z,11.99
2023-02-14T13:20:06.707Z,10.74
2023-02-14T13:25:12.820Z,11.61
2023-02-14T13:30:19.022Z,11.03
2023-02-14T13:35:25.075Z,10.91
2023-02-14T13:40:31.351Z,10.62
2023-02-14T13:45:37.424Z,10.24
2023-02-14T13:50:43.627Z,9.99
2023-02-14T13:55:49.757Z,10.11
2023-02-14T14:00:55.972Z,10.33
2023-02-14T14:06:02.336Z,10.02
2023-02-14T14:11:08.003Z,9.86
2023-02-14T14:16:14.141Z,10.05
2023-02-14T14:21:20.267Z,9.57
2023-02-14T14:26:26.349Z,9.69
2023-02-14T14:31:32.683Z,10.37
2023-02-14T14:36:38.714Z,9.88
2023-02-14T14:41:44.980Z,10.06
2023-02-14T14:46:51.049Z,9.88
2023-02-14T14:51:58.172Z,10.64
2023-02-14T14:57:04.247Z,11.09
2023-02-14T15:02:10.775Z,10.65
2023-02-14T15:07:16.863Z,10.48
2023-02-14T15:12:23.016Z,10.92
2023-02-14T15:17:29.172Z,11.26
2023-02-14T15:22:35.605Z,11.46
2023-02-14T15:27:41.721Z,11.38
2023-02-14T15:32:48.453Z,11.43
2023-02-14T15:37:54.607Z,11.84
2023-02-14T15:43:00.909Z,11.83
2023-02-14T15:48:07.008Z,11.94
2023-02-14T15:53:13.688Z,12.13
2023-02-14T15:58:19.837Z,12.46
2023-02-14T16:03:26.122Z,12.15
2023-02-14T16:08:32.212Z,12.21
2023-02-14T16:13:39.144Z,12.65
2023-02-14T16:18:46.491Z,12.30
2023-02-14T16:23:54.605Z,12.37
2023-02-14T16:29:01.794Z,12.62
2023-02-14T16:34:08.742Z,12.55
2023-02-14T16:39:15.476Z,12.54
2023-02-14T16:44:21.681Z,12.77
2023-02-14T16:49:27.761Z,11.87
2023-02-14T16:54:34.003Z,11.66
2023-02-14T16:59:40.106Z,11.57
2023-02-14T17:04:46.690Z,11.76
2023-02-14T17:09:52.821Z,11.58
2023-02-14T17:14:59.420Z,11.14
2023-02-14T17:20:05.508Z,11.33
2023-02-14T17:25:11.969Z,11.43
2023-02-14T17:30:18.256Z,11.83
2023-02-14T17:35:24.461Z,11.29
2023-02-14T17:40:30.789Z,11.62
2023-02-14T17:45:37.005Z,11.29
2023-02-14T17:50:43.240Z,11.41
2023-02-14T17:55:49.522Z,10.83
2023-02-14T18:00:55.656Z,11.52
2023-02-14T18:06:01.845Z,11.95
2023-02-14T18:11:07.920Z,12.00
2023-02-14T18:16:14.277Z,11.78
2023-02-14T18:21:20.509Z,11.75
2023-02-14T18:26:26.675Z,12.12
2023-02-14T18:31:33.246Z,11.73
2023-02-14T18:36:40.303Z,11.53
2023-02-14T18:41:46.433Z,12.55
2023-02-14T18:46:53.405Z,12.69
2023-02-14T18:51:59.864Z,14.04
2023-02-14T18:57:06.083Z,14.82
2023-02-14T19:02:12.168Z,15.39
2023-02-14T19:07:18.386Z,14.97
2023-02-14T19:12:24.477Z,15.34
2023-02-14T19:17:30.766Z,15.48
2023-02-14T19:22:36.919Z,14.60
2023-02-14T19:27:43.093Z,15.12
2023-02-14T19:32:49.288Z,14.68
2023-02-14T19:37:55.396Z,14.27
2023-02-14T19:43:01.548Z,13.85
2023-02-14T19:48:07.800Z,13.42
2023-02-14T19:53:13.931Z,13.67
2023-02-14T19:58:20.222Z,13.66
2023-02-14T20:03:26.600Z,13.93
2023-02-14T20:08:33.093Z,14.53
2023-02-14T20:13:39.171Z,14.04
2023-02-14T20:18:45.705Z,14.46
2023-02-14T20:23:51.821Z,13.46
2023-02-14T20:29:34.072Z,14.71
2023-02-14T20:34:41.054Z,13.92
2023-02-14T20:39:47.188Z,12.90
2023-02-14T20:44:53.425Z,13.10
2023-02-14T20:49:59.669Z,13.94
2023-02-14T20:55:05.757Z,13.97
2023-02-14T21:00:12.685Z,15.32
2023-02-14T21:05:18.831Z,15.17
2023-02-14T21:10:25.026Z,15.29
2023-02-14T21:15:31.110Z,16.15
2023-02-14T21:20:37.406Z,14.58
2023-02-14T21:25:43.471Z,15.52
2023-02-14T21:30:49.745Z,16.69
2023-02-14T21:35:55.723Z,17.04
2023-02-14T21:41:02.235Z,15.73
2023-02-14T21:46:07.954Z,16.16
2023-02-14T21:51:14.888Z,15.75
2023-02-14T21:56:20.958Z,14.82
2023-02-14T22:01:30.145Z,14.37
2023-02-14T22:06:36.262Z,14.76
2023-02-14T22:11:43.698Z,14.47
2023-02-14T22:16:49.894Z,14.03
2023-02-14T22:21:56.128Z,13.45
2023-02-14T22:27:02.207Z,13.74
2023-02-14T22:32:08.469Z,13.67
2023-02-14T22:37:14.458Z,13.44
2023-02-14T22:42:20.776Z,12.38
2023-02-14T22:47:26.824Z,13.85
2023-02-14T22:52:33.040Z,13.56
2023-02-14T22:57:39.126Z,13.04
2023-02-14T23:02:45.407Z,13.54
2023-02-14T23:07:51.443Z,12.79
2023-02-14T23:12:57.741Z,12.52
2023-02-14T23:18:03.912Z,11.93
2023-02-14T23:23:10.249Z,12.48
2023-02-14T23:28:16.323Z,12.47
2023-02-14T23:33:22.595Z,12.10
2023-02-14T23:38:28.683Z,11.87
2023-02-14T23:43:34.872Z,11.30
2023-02-14T23:48:41.040Z,11.41
2023-02-14T23:53:47.220Z,11.49
2023-02-14T23:58:53.295Z,10.91
